Skip Navigation LinksHome page > Weather > Current weather Skip Navigation Links

Current Weather

Central Park, New York

For information only: do not use for flight planning or navigation.
Latest weather
Observation time Friday, June 23, 2017 3:51 PM EDT
Local time Friday, June 23, 2017 4:40 PM EDT
Flight conditions Visual Meteorological Conditions
Winds
Wind direction West-Southwest (240°)
Winds variable from 210° to 270°
Wind speed 9 mph
Visibility 10 mi.
Sky condition
Ceiling 3,700 ft. broken clouds
Cloud layer scattered clouds 2,800 ft.
Cloud layer broken clouds 3,700 ft.
Cloud layer overcast 4,600 ft.
Temperature 80°F
Dewpoint 71°F
Altimeter 29.70 in.Hg
Derived measurements
Relative humidity 74%
Heat index 84°F
Density altitude 2110 ft.
Sea-level pressure 29.67 in.Hg
Remarks
Fully automated report.
System requires maintenance.
Automated weather observing station with precipitation discriminator.
METAR KNYC 231951Z AUTO 24008KT 210V270 10SM SCT028 BKN037 OVC046 27/22 A2970 RMK AO2 SLP048 T02670217 $

Settings

Location code

InnerDrive.Weather 4.0.6144.1 Release CLR 4.0.30319.36366
Copyright ©2015 Inner Drive Technology. All rights reserved. Portions Copyright ©1986-2015 David Braverman.

Find weather

Site navigation


Skip Navigation Links

Place info

Page info

PayPal - The safer, easier way to pay online!

Return home.

Copyright ©2017 Inner Drive Technology. Purveyors of fine, hand-crafted computer software. Page printed 2017-06-23T20:40:02 UTC.